Time;durP1;ratioP1;P1;durP2;ratioP2;P2;SDS_P1;SDS_P2;PMS_P1;PMS_P2;Temp;Humidity;BMP_temperature;BMP_pressure;BME280_temperature;BME280_humidity;BME280_pressure;Samples;Min_cycle;Max_cycle;Signal;HPM_P1;HPM_P2
2022/04/15 00:01:58;;;;;;;5.43;4.15;;;21.00;47.40;;;;;;5039475;28;20009;-78
2022/04/15 00:04:24;;;;;;;5.28;3.90;;;21.00;47.50;;;;;;5039376;28;20010;-76
2022/04/15 00:06:51;;;;;;;5.25;3.95;;;20.90;47.40;;;;;;5037494;28;20064;-77
2022/04/15 00:09:18;;;;;;;5.13;4.15;;;21.00;47.50;;;;;;5038847;28;20025;-76
2022/04/15 00:11:44;;;;;;;4.63;4.05;;;20.90;47.50;;;;;;5040921;28;20036;-76
2022/04/15 00:14:11;;;;;;;4.65;4.07;;;20.90;47.50;;;;;;5039206;28;20026;-75
2022/04/15 00:16:43;;;;;;;5.43;4.20;;;20.90;47.50;;;;;;5039824;28;20056;-77
2022/04/15 00:19:10;;;;;;;4.40;3.92;;;20.90;47.50;;;;;;5040862;28;20033;-76
2022/04/15 00:21:37;;;;;;;5.40;4.43;;;20.90;47.50;;;;;;5038928;28;20025;-76
2022/04/15 00:24:04;;;;;;;5.28;4.13;;;20.90;47.60;;;;;;5034921;28;20014;-76
2022/04/15 00:26:30;;;;;;;5.35;4.43;;;20.90;47.60;;;;;;5034507;28;20029;-77
2022/04/15 00:28:57;;;;;;;4.90;4.40;;;20.90;47.50;;;;;;5033943;28;20025;-77
2022/04/15 00:31:24;;;;;;;6.38;4.68;;;20.90;47.60;;;;;;5035510;28;20020;-76
2022/04/15 00:33:50;;;;;;;5.13;3.92;;;20.90;47.50;;;;;;5034341;28;20021;-75
2022/04/15 00:36:16;;;;;;;5.30;4.28;;;20.90;47.60;;;;;;5033640;28;20033;-75
2022/04/15 00:38:42;;;;;;;5.10;4.07;;;20.90;47.70;;;;;;5033577;28;20033;-75
2022/04/15 00:41:13;;;;;;;4.80;4.30;;;20.90;47.60;;;;;;5016886;28;20079;-75
2022/04/15 00:43:40;;;;;;;5.55;4.32;;;20.90;47.60;;;;;;5033856;28;20017;-76
2022/04/15 00:46:09;;;;;;;5.43;4.25;;;20.90;47.60;;;;;;5034935;28;20018;-76
2022/04/15 00:48:36;;;;;;;4.90;4.20;;;20.90;47.60;;;;;;5033461;28;20088;-77
2022/04/15 00:51:02;;;;;;;5.22;4.30;;;20.90;47.60;;;;;;5033828;28;20026;-75
2022/04/15 00:53:29;;;;;;;5.65;4.25;;;20.90;47.60;;;;;;5034263;28;20010;-76
2022/04/15 00:55:57;;;;;;;5.00;4.50;;;20.80;47.60;;;;;;5035625;28;20025;-76
2022/04/15 00:58:25;;;;;;;4.55;3.65;;;20.90;47.70;;;;;;5035199;28;20036;-76
2022/04/15 01:00:53;;;;;;;8.00;4.43;;;20.80;47.50;;;;;;5034905;28;20010;-76
2022/04/15 01:03:21;;;;;;;4.32;3.92;;;20.90;47.70;;;;;;5034441;28;20647;-76
2022/04/15 01:05:47;;;;;;;5.35;4.68;;;20.90;47.70;;;;;;5034984;28;20021;-76
2022/04/15 01:08:13;;;;;;;5.13;4.40;;;20.90;47.70;;;;;;5017039;28;20021;-76
2022/04/15 01:10:39;;;;;;;6.32;4.45;;;20.80;47.60;;;;;;5033632;28;20013;-76
2022/04/15 01:13:05;;;;;;;4.47;4.07;;;20.80;47.70;;;;;;5033872;28;20072;-75
2022/04/15 01:15:32;;;;;;;5.05;4.43;;;20.80;47.70;;;;;;5033167;28;20116;-76
2022/04/15 01:17:58;;;;;;;6.07;4.72;;;20.80;47.70;;;;;;5033391;28;20059;-76
2022/04/15 01:20:23;;;;;;;5.03;4.20;;;20.80;47.70;;;;;;5016963;28;20021;-76
2022/04/15 01:23:11;;;;;;;4.82;4.20;;;20.80;47.70;;;;;;5034155;28;20014;-75
2022/04/15 01:25:37;;;;;;;4.32;3.92;;;20.80;47.70;;;;;;5035145;28;20037;-77
2022/04/15 01:28:03;;;;;;;4.82;4.10;;;20.80;47.70;;;;;;5035354;28;20014;-76
2022/04/15 01:30:30;;;;;;;5.00;4.50;;;20.80;47.60;;;;;;5035563;28;20049;-76
2022/04/15 01:32:57;;;;;;;4.93;4.43;;;20.80;47.70;;;;;;5036170;28;20025;-77
2022/04/15 01:35:22;;;;;;;5.85;4.55;;;20.80;47.70;;;;;;5018854;28;20017;-77
2022/04/15 01:37:49;;;;;;;5.55;4.43;;;20.80;47.70;;;;;;5034653;28;20022;-77
2022/04/15 01:40:16;;;;;;;5.88;4.93;;;20.80;47.70;;;;;;5033834;28;20022;-78
2022/04/15 01:42:42;;;;;;;5.25;4.18;;;20.80;47.70;;;;;;5032860;28;20013;-77
2022/04/15 01:45:09;;;;;;;5.60;4.80;;;20.80;47.70;;;;;;5032826;28;20063;-77
2022/04/15 01:47:35;;;;;;;5.05;4.55;;;20.80;47.70;;;;;;5033097;28;20027;-77
2022/04/15 01:50:02;;;;;;;5.60;4.93;;;20.80;47.80;;;;;;5032711;28;20029;-77
2022/04/15 01:52:28;;;;;;;6.10;4.80;;;20.80;48.30;;;;;;5033021;28;20105;-76
2022/04/15 01:54:53;;;;;;;5.35;4.70;;;20.70;47.70;;;;;;5035399;28;20060;-77
2022/04/15 01:57:20;;;;;;;5.00;4.43;;;20.70;47.80;;;;;;5036236;28;20049;-77
2022/04/15 01:59:46;;;;;;;4.85;4.00;;;20.70;47.70;;;;;;5034938;28;20493;-78
2022/04/15 02:02:13;;;;;;;4.95;4.30;;;20.70;47.70;;;;;;5033286;28;20022;-77
2022/04/15 02:04:39;;;;;;;5.07;4.30;;;20.70;47.70;;;;;;5032619;28;20013;-76
2022/04/15 02:07:05;;;;;;;5.82;5.07;;;20.70;47.80;;;;;;5032030;28;20487;-77
2022/04/15 02:09:31;;;;;;;6.13;4.88;;;20.70;47.70;;;;;;5033023;28;20021;-78
2022/04/15 02:11:59;;;;;;;4.97;4.45;;;20.70;47.70;;;;;;5032636;28;20017;-77
2022/04/15 02:14:25;;;;;;;5.75;4.40;;;20.70;47.80;;;;;;5032705;28;20020;-76
2022/04/15 02:16:54;;;;;;;5.47;4.35;;;20.70;47.80;;;;;;5032599;28;20045;-76
2022/04/15 02:19:21;;;;;;;6.28;4.50;;;20.70;47.80;;;;;;5032601;28;20056;-79
2022/04/15 02:21:47;;;;;;;5.13;4.20;;;20.70;48.30;;;;;;5032751;28;20028;-79
2022/04/15 02:24:14;;;;;;;5.78;4.50;;;20.70;47.80;;;;;;5032452;28;20017;-80
2022/04/15 02:26:39;;;;;;;4.95;4.45;;;20.70;47.80;;;;;;5033176;28;20020;-80
2022/04/15 02:29:06;;;;;;;5.05;4.50;;;20.70;47.80;;;;;;5033410;28;20045;-80
2022/04/15 02:31:32;;;;;;;5.55;4.88;;;20.70;47.80;;;;;;5033050;28;20091;-82
2022/04/15 02:33:57;;;;;;;5.78;4.47;;;20.70;47.80;;;;;;5016468;28;20083;-79
2022/04/15 02:36:24;;;;;;;5.32;4.57;;;20.70;47.80;;;;;;5032973;28;20369;-80
2022/04/15 02:38:50;;;;;;;5.22;4.57;;;20.60;47.80;;;;;;5038188;28;20027;-82
2022/04/15 02:41:16;;;;;;;5.95;4.40;;;20.70;47.80;;;;;;5038749;28;20033;-82
2022/04/15 02:43:42;;;;;;;5.15;4.60;;;20.70;47.80;;;;;;5039241;28;20411;-83
2022/04/15 02:46:09;;;;;;;5.72;4.78;;;20.70;47.80;;;;;;5039768;28;20092;-81
2022/04/15 02:48:35;;;;;;;5.50;4.47;;;20.60;47.80;;;;;;5039735;28;20013;-81
2022/04/15 02:51:01;;;;;;;5.15;4.63;;;20.60;47.80;;;;;;5040898;28;20044;-81
2022/04/15 02:53:27;;;;;;;5.30;4.55;;;20.60;47.80;;;;;;5037585;28;20109;-81
2022/04/15 02:55:53;;;;;;;6.13;4.97;;;20.60;47.70;;;;;;5035495;28;20380;-82
2022/04/15 02:58:20;;;;;;;5.70;4.28;;;20.60;47.80;;;;;;5035246;28;20068;-81
2022/04/15 03:00:47;;;;;;;5.85;4.57;;;20.60;47.70;;;;;;5039003;28;20030;-79
2022/04/15 03:03:13;;;;;;;6.35;4.88;;;20.60;47.70;;;;;;5040289;28;20016;-82
2022/04/15 03:05:40;;;;;;;5.13;4.55;;;20.60;48.30;;;;;;5040524;28;20025;-79
2022/04/15 03:08:06;;;;;;;6.10;4.82;;;20.60;47.70;;;;;;5038904;28;20021;-79
2022/04/15 03:10:32;;;;;;;5.15;4.53;;;20.60;47.70;;;;;;5019505;28;20480;-78
2022/04/15 03:12:58;;;;;;;5.05;4.55;;;20.60;47.70;;;;;;5035933;28;20017;-78
2022/04/15 03:15:25;;;;;;;5.07;4.35;;;20.60;47.70;;;;;;5035393;28;20594;-78
2022/04/15 03:17:52;;;;;;;5.38;4.63;;;20.60;47.70;;;;;;5035729;28;20063;-79
2022/04/15 03:20:19;;;;;;;5.40;4.70;;;20.60;47.70;;;;;;5035625;28;20515;-79
2022/04/15 03:22:46;;;;;;;6.22;4.80;;;20.60;47.70;;;;;;5035811;28;20036;-78
2022/04/15 03:25:19;;;;;;;5.68;4.70;;;20.50;47.70;;;;;;5036531;28;20020;-80
2022/04/15 03:27:46;;;;;;;5.38;4.50;;;20.60;47.70;;;;;;5037414;28;20017;-80
2022/04/15 03:30:12;;;;;;;5.10;4.60;;;20.60;47.70;;;;;;5036688;28;20014;-79
2022/04/15 03:32:48;;;;;;;5.03;4.20;;;20.60;47.60;;;;;;5036588;28;20049;-78
2022/04/15 03:35:15;;;;;;;5.00;4.38;;;20.60;47.70;;;;;;5036860;28;20010;-80
2022/04/15 03:37:40;;;;;;;5.80;4.47;;;20.50;47.60;;;;;;5036702;28;20022;-78
2022/04/15 03:40:07;;;;;;;5.10;4.40;;;20.50;47.50;;;;;;5037105;28;20699;-79
2022/04/15 03:42:56;;;;;;;5.88;4.75;;;20.50;47.50;;;;;;5036396;28;20010;-80
2022/04/15 03:45:22;;;;;;;5.07;4.40;;;20.50;47.60;;;;;;5036209;28;20472;-80
2022/04/15 03:47:49;;;;;;;5.18;4.40;;;20.50;47.50;;;;;;5035856;28;20033;-79
2022/04/15 03:50:15;;;;;;;5.13;4.50;;;20.50;47.50;;;;;;5035645;28;20025;-79
2022/04/15 03:52:45;;;;;;;5.13;4.63;;;20.50;47.50;;;;;;5036005;28;20028;-79
2022/04/15 03:55:11;;;;;;;4.65;4.22;;;20.50;47.50;;;;;;5018313;28;20029;-79
2022/04/15 03:57:37;;;;;;;5.45;4.50;;;20.50;47.50;;;;;;5034563;28;20468;-79
2022/04/15 04:00:08;;;;;;;5.35;4.50;;;20.50;47.50;;;;;;5035608;28;20112;-78
2022/04/15 04:02:34;;;;;;;5.25;4.70;;;20.50;47.50;;;;;;5034461;28;20014;-78
2022/04/15 04:05:04;;;;;;;5.00;4.35;;;20.50;47.50;;;;;;5017866;28;20032;-79
2022/04/15 04:07:30;;;;;;;5.22;4.50;;;20.50;47.50;;;;;;5035034;28;20010;-79
2022/04/15 04:09:56;;;;;;;5.22;4.68;;;20.50;47.50;;;;;;5036864;28;20100;-79
2022/04/15 04:12:23;;;;;;;5.80;4.53;;;20.40;47.40;;;;;;5036001;28;20075;-79
2022/04/15 04:14:49;;;;;;;6.55;4.72;;;20.50;47.40;;;;;;5037356;28;20484;-79
2022/04/15 04:17:16;;;;;;;5.55;4.28;;;20.50;47.40;;;;;;5036743;28;20109;-80
2022/04/15 04:19:43;;;;;;;5.13;4.60;;;20.50;47.40;;;;;;5036007;28;20030;-79
2022/04/15 04:22:10;;;;;;;5.00;4.50;;;20.40;47.40;;;;;;5035919;28;20001;-80
2022/04/15 04:24:35;;;;;;;5.10;4.60;;;20.50;47.30;;;;;;5034058;28;20025;-79
2022/04/15 04:27:02;;;;;;;5.88;4.70;;;20.40;47.30;;;;;;5017531;28;20075;-78
2022/04/15 04:29:28;;;;;;;6.82;4.60;;;20.40;47.40;;;;;;5034442;28;20104;-79
2022/04/15 04:31:55;;;;;;;5.45;4.82;;;20.40;47.30;;;;;;5035460;28;20022;-79
2022/04/15 04:34:20;;;;;;;5.28;4.68;;;20.40;47.30;;;;;;5033883;28;20021;-79
2022/04/15 04:36:47;;;;;;;5.20;4.70;;;20.50;47.40;;;;;;5034441;28;20033;-79
2022/04/15 04:39:13;;;;;;;5.40;4.72;;;20.40;47.30;;;;;;5033874;28;20033;-80
2022/04/15 04:41:40;;;;;;;4.85;4.45;;;20.40;47.20;;;;;;5034379;28;20022;-79
2022/04/15 04:44:06;;;;;;;4.85;4.35;;;20.40;47.20;;;;;;5034513;28;20460;-80
2022/04/15 04:46:33;;;;;;;5.03;4.53;;;20.40;47.20;;;;;;5035761;28;20041;-80
2022/04/15 04:48:58;;;;;;;6.03;4.90;;;20.50;47.20;;;;;;5034045;28;20092;-78
2022/04/15 04:51:24;;;;;;;4.60;4.13;;;20.40;47.20;;;;;;5033548;28;20045;-78
2022/04/15 04:53:50;;;;;;;4.80;4.13;;;20.40;47.20;;;;;;5033862;28;20093;-80
2022/04/15 04:56:16;;;;;;;4.93;4.43;;;20.40;47.20;;;;;;5017382;28;20056;-79
2022/04/15 04:58:43;;;;;;;4.95;4.30;;;20.40;47.20;;;;;;5034359;28;20488;-79
2022/04/15 05:01:09;;;;;;;4.78;4.28;;;20.40;47.20;;;;;;5034262;28;20089;-80
2022/04/15 05:03:35;;;;;;;4.45;4.00;;;20.40;47.10;;;;;;5033956;28;20021;-78
2022/04/15 05:06:01;;;;;;;4.50;4.10;;;20.40;47.10;;;;;;5033914;28;20097;-79
2022/04/15 05:08:27;;;;;;;5.03;4.53;;;20.40;47.10;;;;;;5034336;28;20022;-79
2022/04/15 05:10:54;;;;;;;4.95;4.20;;;20.40;47.00;;;;;;5034866;28;20515;-80
2022/04/15 05:13:20;;;;;;;4.90;4.22;;;20.40;47.00;;;;;;5034916;28;20033;-78
2022/04/15 05:15:47;;;;;;;4.32;3.92;;;20.40;47.00;;;;;;5034395;28;20510;-79
2022/04/15 05:18:14;;;;;;;4.40;3.97;;;20.40;47.00;;;;;;5035299;28;20033;-79
2022/04/15 05:20:40;;;;;;;4.13;3.72;;;20.40;47.10;;;;;;5017449;28;20095;-80
2022/04/15 05:23:06;;;;;;;4.93;4.20;;;20.40;47.00;;;;;;5033160;28;20480;-78
2022/04/15 05:25:31;;;;;;;4.35;3.80;;;20.40;47.00;;;;;;5016384;28;20114;-78
2022/04/15 05:27:58;;;;;;;5.20;4.13;;;20.30;46.90;;;;;;5016627;28;20028;-79
2022/04/15 05:30:24;;;;;;;4.20;3.80;;;20.40;46.90;;;;;;5016415;28;20013;-79
2022/04/15 05:32:52;;;;;;;4.63;4.18;;;20.40;46.80;;;;;;5016639;28;20029;-79
2022/04/15 05:35:19;;;;;;;4.20;3.80;;;20.40;46.80;;;;;;5033213;28;20030;-79
2022/04/15 05:37:45;;;;;;;4.28;3.63;;;20.40;46.70;;;;;;5034275;28;20014;-80
2022/04/15 05:40:11;;;;;;;3.78;3.47;;;20.40;46.80;;;;;;5037727;28;20083;-81
2022/04/15 05:42:37;;;;;;;4.40;4.00;;;20.40;46.60;;;;;;5021153;28;20064;-80
2022/04/15 05:45:03;;;;;;;4.40;4.00;;;20.40;46.60;;;;;;5037437;28;20025;-81
2022/04/15 05:47:29;;;;;;;4.20;3.67;;;20.40;46.50;;;;;;5020887;28;20108;-82
2022/04/15 05:49:55;;;;;;;4.18;3.40;;;20.60;46.50;;;;;;5038753;28;20067;-81
2022/04/15 05:52:21;;;;;;;4.32;3.70;;;20.70;46.20;;;;;;5035081;28;20013;-80
2022/04/15 05:54:46;;;;;;;3.80;3.50;;;20.80;46.00;;;;;;5032829;28;20398;-80
2022/04/15 05:57:12;;;;;;;3.85;3.33;;;21.00;45.60;;;;;;5016541;28;20025;-80
2022/04/15 05:59:38;;;;;;;3.53;3.22;;;21.20;45.10;;;;;;5033840;28;20065;-81
2022/04/15 06:02:04;;;;;;;3.92;3.30;;;21.40;45.20;;;;;;5032624;28;20060;-81
2022/04/15 06:04:29;;;;;;;3.55;3.25;;;21.60;44.10;;;;;;5032412;28;20055;-82
2022/04/15 06:06:56;;;;;;;3.30;3.00;;;21.80;43.60;;;;;;5032479;28;20115;-81
2022/04/15 06:09:22;;;;;;;3.55;3.25;;;22.00;43.20;;;;;;5033150;28;20036;-81
2022/04/15 06:11:52;;;;;;;3.33;3.03;;;22.20;42.70;;;;;;5035316;28;20030;-81
2022/04/15 06:14:21;;;;;;;3.83;3.13;;;22.40;42.20;;;;;;5017851;28;20017;-81
2022/04/15 06:16:47;;;;;;;4.30;3.20;;;22.60;41.80;;;;;;5033873;28;20098;-83
2022/04/15 06:19:14;;;;;;;3.20;2.70;;;22.80;41.40;;;;;;5034809;28;20041;-80
2022/04/15 06:21:40;;;;;;;3.67;2.90;;;23.00;41.00;;;;;;5034056;28;20021;-80
2022/04/15 06:24:11;;;;;;;3.30;3.00;;;23.20;40.50;;;;;;5036362;28;20029;-80
2022/04/15 06:26:37;;;;;;;3.00;2.80;;;23.30;40.20;;;;;;5036462;28;20014;-81
2022/04/15 06:29:04;;;;;;;2.72;2.50;;;23.50;39.70;;;;;;5036802;28;20032;-82
2022/04/15 06:31:29;;;;;;;3.15;2.75;;;23.70;39.40;;;;;;5036007;28;20022;-82
2022/04/15 06:33:57;;;;;;;3.03;2.80;;;23.80;39.00;;;;;;5036775;28;20013;-81
2022/04/15 06:36:23;;;;;;;2.83;2.63;;;24.00;38.70;;;;;;5023052;28;20022;-81
2022/04/15 06:38:49;;;;;;;2.72;2.50;;;24.10;38.30;;;;;;5042303;28;20038;-82
2022/04/15 06:41:15;;;;;;;2.70;2.50;;;24.20;38.00;;;;;;5042134;28;20022;-79
2022/04/15 06:43:42;;;;;;;2.50;2.30;;;24.40;38.00;;;;;;5040649;28;20025;-80
2022/04/15 06:46:07;;;;;;;3.05;2.78;;;24.50;37.70;;;;;;5041363;28;20022;-79
2022/04/15 06:48:33;;;;;;;2.42;2.22;;;24.60;37.50;;;;;;5041640;28;20052;-81
2022/04/15 06:50:59;;;;;;;2.75;2.50;;;24.70;37.30;;;;;;5042933;28;20060;-79
2022/04/15 06:53:25;;;;;;;2.90;2.60;;;24.80;37.00;;;;;;5040257;28;20416;-81
2022/04/15 06:55:51;;;;;;;2.55;2.35;;;24.90;36.70;;;;;;5022188;28;20407;-81
2022/04/15 06:58:18;;;;;;;2.78;2.50;;;25.00;36.50;;;;;;5039247;28;20060;-81
2022/04/15 07:00:44;;;;;;;2.45;2.25;;;25.10;36.30;;;;;;5022117;28;20013;-83
2022/04/15 07:03:10;;;;;;;2.83;2.40;;;25.20;36.20;;;;;;5038445;28;20026;-83
2022/04/15 07:05:36;;;;;;;2.55;2.35;;;25.20;36.10;;;;;;5039116;28;20020;-84
2022/04/15 07:08:05;;;;;;;2.85;2.60;;;25.30;35.90;;;;;;5021909;28;20105;-81
2022/04/15 07:10:31;;;;;;;2.35;2.15;;;25.40;35.80;;;;;;5020616;28;20028;-79
2022/04/15 07:12:57;;;;;;;2.50;2.30;;;25.50;35.70;;;;;;5020858;28;20021;-81
2022/04/15 07:15:25;;;;;;;2.40;2.20;;;25.60;35.50;;;;;;5036551;28;20041;-80
2022/04/15 07:17:51;;;;;;;2.45;2.25;;;25.70;35.40;;;;;;5035941;28;20071;-80
2022/04/15 07:20:17;;;;;;;2.42;2.22;;;25.70;35.20;;;;;;5019758;28;20492;-82
2022/04/15 07:22:43;;;;;;;2.40;2.20;;;25.90;35.70;;;;;;5035736;28;20024;-79
2022/04/15 07:25:09;;;;;;;2.30;2.10;;;25.90;34.90;;;;;;5036253;28;20014;-79
2022/04/15 07:27:35;;;;;;;2.40;2.20;;;26.00;34.70;;;;;;5019267;28;20037;-78
2022/04/15 07:30:01;;;;;;;2.35;2.15;;;26.10;34.70;;;;;;5035502;28;20020;-78
2022/04/15 07:32:29;;;;;;;2.33;2.10;;;26.10;34.60;;;;;;5034305;28;20519;-78
2022/04/15 07:34:54;;;;;;;3.85;2.10;;;26.20;34.50;;;;;;5034611;28;20025;-79
2022/04/15 07:37:22;;;;;;;2.10;1.80;;;26.20;34.40;;;;;;5035515;28;20414;-79
2022/04/15 07:39:50;;;;;;;3.35;2.20;;;26.30;34.30;;;;;;5041162;28;20025;-78
2022/04/15 07:42:19;;;;;;;2.80;2.13;;;26.40;34.30;;;;;;5040909;28;20071;-78
2022/04/15 07:44:45;;;;;;;2.10;1.90;;;26.40;34.20;;;;;;5041012;28;20087;-80
2022/04/15 07:47:11;;;;;;;2.47;2.13;;;26.40;34.00;;;;;;5039185;28;20005;-78
2022/04/15 07:49:37;;;;;;;2.33;2.13;;;26.50;33.90;;;;;;5040250;28;20100;-79
2022/04/15 07:52:04;;;;;;;2.33;1.90;;;26.60;33.90;;;;;;5039358;28;20045;-80
2022/04/15 07:54:31;;;;;;;2.30;2.08;;;26.70;33.70;;;;;;5020678;28;20112;-78
2022/04/15 07:56:57;;;;;;;2.63;2.30;;;26.80;33.60;;;;;;5037535;28;20056;-79
2022/04/15 07:59:22;;;;;;;2.20;1.90;;;26.80;33.70;;;;;;5019331;28;20045;-79
2022/04/15 08:01:49;;;;;;;2.30;2.10;;;26.80;33.50;;;;;;5035984;28;20094;-78
2022/04/15 08:04:14;;;;;;;2.03;1.83;;;26.90;33.50;;;;;;5036333;28;20045;-78
2022/04/15 08:06:40;;;;;;;2.17;1.83;;;26.90;33.40;;;;;;5034882;28;20032;-78
2022/04/15 08:09:07;;;;;;;2.45;2.25;;;27.00;33.40;;;;;;5018193;28;20561;-78
2022/04/15 08:11:33;;;;;;;2.17;1.98;;;27.00;33.20;;;;;;5034444;28;20010;-78
2022/04/15 08:13:58;;;;;;;2.10;1.90;;;27.10;33.20;;;;;;5035107;28;20024;-77
2022/04/15 08:16:25;;;;;;;2.63;2.07;;;27.20;33.20;;;;;;4990262;28;1286098;-78
2022/04/15 08:18:51;;;;;;;2.10;1.90;;;27.20;33.10;;;;;;5018792;28;20311;-78
2022/04/15 08:21:17;;;;;;;2.60;2.10;;;27.20;33.10;;;;;;5035922;28;20440;-77
2022/04/15 08:23:43;;;;;;;3.53;2.58;;;27.20;33.00;;;;;;5039365;28;20388;-78
2022/04/15 08:26:11;;;;;;;2.30;2.08;;;27.30;33.10;;;;;;5044736;28;20478;-80
2022/04/15 08:28:37;;;;;;;2.30;2.03;;;27.30;33.50;;;;;;5042663;28;20013;-78
2022/04/15 08:31:03;;;;;;;1.80;1.70;;;27.30;33.00;;;;;;5042124;28;20030;-80
2022/04/15 08:33:30;;;;;;;2.72;2.08;;;27.30;33.10;;;;;;5042417;28;20023;-78
2022/04/15 08:35:55;;;;;;;2.78;2.00;;;27.30;33.00;;;;;;5043783;28;20097;-80
2022/04/15 08:38:21;;;;;;;2.10;1.90;;;27.30;33.10;;;;;;5027383;28;20495;-78
2022/04/15 08:40:49;;;;;;;2.80;2.03;;;27.30;33.10;;;;;;5047255;28;20014;-81
2022/04/15 08:43:35;;;;;;;2.75;2.00;;;27.40;33.00;;;;;;5048074;28;20033;-81
2022/04/15 08:46:10;;;;;;;2.72;1.85;;;27.40;32.90;;;;;;5053250;28;20022;-81
2022/04/15 08:48:36;;;;;;;2.97;2.13;;;27.40;32.90;;;;;;5054049;28;20018;-80
2022/04/15 08:51:02;;;;;;;2.83;2.08;;;27.40;32.80;;;;;;5052601;28;20077;-82
2022/04/15 08:53:28;;;;;;;2.50;1.95;;;27.50;32.90;;;;;;5038283;28;20530;-82
2022/04/15 08:55:58;;;;;;;3.13;2.10;;;27.40;32.90;;;;;;5036105;28;20028;-81
2022/04/15 08:58:27;;;;;;;3.00;2.17;;;27.50;33.00;;;;;;5035309;28;20022;-81
2022/04/15 09:00:53;;;;;;;2.13;1.92;;;27.50;32.90;;;;;;5035572;28;20037;-81
2022/04/15 09:03:19;;;;;;;2.30;2.05;;;27.50;32.90;;;;;;5035984;28;20586;-81
2022/04/15 09:05:51;;;;;;;3.40;1.80;;;27.60;32.90;;;;;;5035134;28;20006;-81
2022/04/15 09:08:17;;;;;;;2.28;2.08;;;27.60;32.80;;;;;;5035476;28;20077;-79
2022/04/15 09:10:44;;;;;;;3.05;2.08;;;27.60;32.80;;;;;;5054187;28;20028;-80
2022/04/15 09:13:20;;;;;;;2.95;2.10;;;27.50;32.80;;;;;;5056082;28;20017;-81
2022/04/15 09:15:46;;;;;;;2.40;2.08;;;27.60;32.90;;;;;;5056411;28;20049;-81
2022/04/15 09:18:29;;;;;;;3.25;2.30;;;27.60;32.80;;;;;;5055653;28;20028;-80
2022/04/15 09:21:21;;;;;;;3.83;2.40;;;27.70;32.80;;;;;;5055887;28;20032;-83
2022/04/15 09:23:48;;;;;;;3.22;2.00;;;27.70;32.90;;;;;;5058064;28;20038;-81
2022/04/15 09:26:14;;;;;;;3.45;2.30;;;27.60;32.90;;;;;;5041461;28;20018;-83
2022/04/15 09:28:40;;;;;;;4.25;2.30;;;27.70;32.80;;;;;;5058157;28;20005;-80
2022/04/15 09:31:13;;;;;;;3.30;2.30;;;27.70;32.80;;;;;;5041469;28;20024;-80
2022/04/15 09:33:49;;;;;;;3.30;2.40;;;27.70;32.80;;;;;;5041472;28;20022;-81
2022/04/15 09:36:34;;;;;;;4.18;2.40;;;27.60;33.30;;;;;;5040828;28;20013;-81
2022/04/15 09:39:04;;;;;;;4.00;2.50;;;27.70;32.80;;;;;;5057259;28;20022;-82
2022/04/15 09:41:33;;;;;;;3.67;2.63;;;27.70;32.90;;;;;;5056526;28;20030;-81
2022/04/15 09:44:00;;;;;;;3.33;2.90;;;27.70;32.70;;;;;;5056815;28;20014;-81
2022/04/15 09:46:27;;;;;;;3.03;2.53;;;27.70;32.80;;;;;;5040427;28;20018;-81
2022/04/15 09:48:58;;;;;;;5.45;3.15;;;27.70;32.80;;;;;;5056434;28;20081;-80
2022/04/15 09:51:24;;;;;;;3.92;2.58;;;27.60;33.10;;;;;;5039289;28;20010;-81
2022/04/15 09:53:52;;;;;;;3.13;2.70;;;27.50;33.10;;;;;;5037095;28;20018;-83
2022/04/15 09:56:18;;;;;;;5.65;3.10;;;27.50;33.30;;;;;;5033658;28;20493;-81
2022/04/15 09:58:44;;;;;;;4.05;3.10;;;27.40;33.20;;;;;;5033815;28;20060;-80
2022/04/15 10:01:10;;;;;;;3.47;2.90;;;27.50;33.30;;;;;;5016601;28;20010;-80
2022/04/15 10:03:35;;;;;;;4.00;3.13;;;27.50;33.30;;;;;;5032993;28;20021;-80
2022/04/15 10:06:02;;;;;;;3.50;2.97;;;27.50;33.30;;;;;;5032802;28;20017;-80
2022/04/15 10:08:28;;;;;;;3.47;2.80;;;27.50;33.40;;;;;;5032697;28;20067;-81
2022/04/15 10:10:55;;;;;;;6.93;3.65;;;27.40;33.50;;;;;;5032937;28;20033;-81
2022/04/15 10:13:26;;;;;;;3.75;3.08;;;27.40;33.60;;;;;;5032222;28;20018;-80
2022/04/15 10:15:52;;;;;;;4.15;3.20;;;27.40;33.60;;;;;;5031991;28;20100;-81
2022/04/15 10:18:18;;;;;;;3.63;2.80;;;27.40;33.60;;;;;;5031573;28;20435;-79
2022/04/15 10:20:44;;;;;;;3.20;2.90;;;27.40;33.60;;;;;;5031759;28;20018;-79
2022/04/15 10:23:11;;;;;;;4.63;2.97;;;27.30;33.70;;;;;;5032048;28;20353;-78
2022/04/15 10:25:38;;;;;;;3.40;3.00;;;27.30;33.80;;;;;;5031794;28;20021;-79
2022/04/15 10:28:10;;;;;;;4.90;3.38;;;27.20;33.80;;;;;;5031630;28;20018;-79
2022/04/15 10:30:36;;;;;;;4.90;3.08;;;27.30;33.90;;;;;;5031341;28;20108;-79
2022/04/15 10:33:02;;;;;;;4.00;3.13;;;27.20;33.90;;;;;;5031994;28;20500;-79
2022/04/15 10:35:30;;;;;;;4.35;2.78;;;27.20;34.00;;;;;;5031621;28;20105;-79
2022/04/15 10:38:05;;;;;;;4.18;2.92;;;27.20;34.00;;;;;;5031792;28;20012;-80
2022/04/15 10:40:32;;;;;;;5.20;3.25;;;27.20;34.10;;;;;;5034225;28;20496;-79
2022/04/15 10:43:19;;;;;;;3.28;2.75;;;27.20;34.10;;;;;;5032424;28;20021;-81
2022/04/15 10:45:45;;;;;;;4.03;2.83;;;27.20;34.10;;;;;;5032074;28;20036;-80
2022/04/15 10:48:11;;;;;;;4.72;3.10;;;27.10;34.10;;;;;;5031871;28;20010;-79
2022/04/15 10:50:39;;;;;;;3.30;2.90;;;27.10;34.20;;;;;;5032482;28;20044;-79
2022/04/15 10:53:17;;;;;;;4.25;3.20;;;27.00;34.50;;;;;;5031668;28;20014;-79
2022/04/15 10:55:47;;;;;;;4.57;2.92;;;27.00;34.50;;;;;;5031759;28;20014;-78
2022/04/15 10:58:13;;;;;;;4.78;3.72;;;26.90;34.60;;;;;;5015412;28;20005;-78
2022/04/15 11:03:26;;;;;;;5.22;3.28;;;26.90;34.70;;;;;;5033150;28;20028;-79
2022/04/15 11:05:53;;;;;;;3.55;2.90;;;26.80;34.80;;;;;;5031655;28;20014;-80
2022/04/15 11:08:20;;;;;;;3.60;3.10;;;26.80;34.90;;;;;;5014908;28;20014;-79
2022/04/15 11:10:54;;;;;;;3.50;2.90;;;26.70;34.90;;;;;;5015127;28;20033;-79
2022/04/15 11:13:27;;;;;;;4.15;3.30;;;26.60;35.00;;;;;;5031449;28;20018;-79
2022/04/15 11:16:09;;;;;;;6.60;3.47;;;26.50;35.10;;;;;;5031317;28;20075;-79
2022/04/15 11:18:50;;;;;;;3.88;3.05;;;26.40;35.30;;;;;;5032784;28;20029;-81
2022/04/15 11:21:20;;;;;;;5.35;3.22;;;26.30;35.30;;;;;;5016736;28;20014;-78
2022/04/15 11:23:53;;;;;;;3.88;3.42;;;26.30;35.50;;;;;;5037288;28;20016;-79
2022/04/15 11:26:20;;;;;;;4.90;3.35;;;26.20;35.70;;;;;;5035969;28;20014;-79
2022/04/15 11:28:52;;;;;;;3.90;3.22;;;26.10;35.90;;;;;;5035942;28;20009;-80
2022/04/15 11:31:39;;;;;;;4.95;3.40;;;26.10;36.00;;;;;;5035122;28;20033;-79
2022/04/15 11:34:20;;;;;;;4.18;3.35;;;26.00;36.10;;;;;;5035211;28;20032;-79
2022/04/15 11:36:49;;;;;;;4.47;3.20;;;25.90;36.30;;;;;;5035279;28;20029;-79
2022/04/15 11:39:17;;;;;;;4.72;3.60;;;25.90;36.40;;;;;;5034834;28;20095;-79
2022/04/15 11:41:51;;;;;;;4.82;3.45;;;25.80;36.50;;;;;;5034962;28;20010;-79
2022/04/15 11:44:17;;;;;;;4.60;3.70;;;25.70;36.50;;;;;;5034921;28;20063;-79
2022/04/15 11:46:44;;;;;;;4.43;3.30;;;25.70;36.70;;;;;;5035029;28;20148;-79
2022/04/15 11:49:27;;;;;;;4.72;3.35;;;25.60;36.70;;;;;;5035115;28;20009;-79
2022/04/15 11:51:56;;;;;;;3.50;3.20;;;25.60;36.90;;;;;;5036174;28;20025;-80
2022/04/15 11:54:23;;;;;;;4.25;3.50;;;25.50;36.90;;;;;;5035571;28;20139;-79
2022/04/15 11:56:57;;;;;;;4.32;3.30;;;25.50;37.00;;;;;;5035302;28;20029;-79
2022/04/15 11:59:24;;;;;;;4.85;3.38;;;25.40;37.10;;;;;;5035019;28;20026;-80
2022/04/15 12:01:50;;;;;;;4.65;3.40;;;25.40;37.10;;;;;;5018221;28;20013;-79
2022/04/15 12:04:17;;;;;;;4.72;3.25;;;25.40;37.10;;;;;;5035290;28;20013;-78
2022/04/15 12:06:43;;;;;;;5.13;3.50;;;25.30;37.10;;;;;;5035220;28;20026;-79
2022/04/15 12:09:13;;;;;;;3.88;3.15;;;25.30;37.20;;;;;;5034928;28;20017;-78
2022/04/15 12:11:39;;;;;;;4.32;3.20;;;25.30;37.30;;;;;;5018081;28;20021;-78
2022/04/15 12:14:08;;;;;;;4.63;3.20;;;25.20;37.30;;;;;;5035065;28;20033;-79
2022/04/15 12:16:35;;;;;;;3.90;2.90;;;25.20;37.30;;;;;;5035192;28;20124;-79
2022/04/15 12:19:02;;;;;;;4.32;3.15;;;25.20;37.50;;;;;;5035217;28;20017;-79
2022/04/15 12:21:29;;;;;;;4.50;3.10;;;25.20;37.50;;;;;;5018477;28;20465;-78
2022/04/15 12:24:10;;;;;;;4.60;3.55;;;25.10;37.50;;;;;;5035428;28;20009;-79
2022/04/15 12:26:46;;;;;;;3.28;2.97;;;25.10;37.50;;;;;;5035648;28;20013;-78
2022/04/15 12:32:16;;;;;;;3.30;3.00;;;25.10;37.70;;;;;;5034234;28;20033;-79
2022/04/15 12:34:46;;;;;;;3.95;2.80;;;25.00;37.60;;;;;;5034423;28;20067;-79
2022/04/15 12:37:57;;;;;;;3.75;2.83;;;25.00;37.70;;;;;;5034125;28;20013;-78
2022/04/15 12:40:24;;;;;;;4.43;3.00;;;25.00;37.90;;;;;;5035118;28;20116;-78
2022/04/15 12:42:50;;;;;;;3.83;2.80;;;25.00;37.90;;;;;;5034363;28;20083;-77
2022/04/15 12:45:21;;;;;;;4.18;3.25;;;24.90;37.80;;;;;;5034578;28;20024;-78
2022/04/15 12:48:04;;;;;;;3.00;2.70;;;24.80;37.90;;;;;;5034454;28;20018;-78
2022/04/15 12:50:33;;;;;;;3.60;3.28;;;24.80;38.00;;;;;;5034461;28;20013;-78
2022/04/15 12:52:59;;;;;;;5.03;3.00;;;24.80;38.10;;;;;;5036052;28;20021;-78
2022/04/15 12:55:32;;;;;;;3.58;2.80;;;24.80;38.10;;;;;;5034208;28;20093;-77
2022/04/15 12:57:59;;;;;;;3.85;3.00;;;24.80;38.20;;;;;;5017338;28;20031;-78